createdAt,value
2023-01-07T00:00:02.533Z,-0.79
2023-01-07T00:03:26.582Z,-0.44
2023-01-07T00:06:49.595Z,-0.47
2023-01-07T00:10:04.657Z,-0.54
2023-01-07T00:13:26.546Z,-0.53
2023-01-07T00:16:48.563Z,-0.44
2023-01-07T00:20:03.985Z,-0.51
2023-01-07T00:23:25.551Z,-0.78
2023-01-07T00:26:40.963Z,-1.03
2023-01-07T00:30:02.544Z,-1.00
2023-01-07T00:33:24.596Z,-0.85
2023-01-07T00:36:40.678Z,-0.85
2023-01-07T00:40:02.565Z,-0.76
2023-01-07T00:43:24.516Z,-0.57
2023-01-07T00:46:46.578Z,-0.73
2023-01-07T00:50:08.499Z,-1.19
2023-01-07T00:53:25.125Z,-1.03
2023-01-07T00:56:46.521Z,-1.13
2023-01-07T01:00:08.562Z,-0.79
2023-01-07T01:03:30.563Z,-0.83
2023-01-07T01:06:45.889Z,-0.69
2023-01-07T01:10:07.494Z,-0.68
2023-01-07T01:13:29.520Z,-0.63
2023-01-07T01:16:51.550Z,-0.86
2023-01-07T01:20:07.243Z,-0.91
2023-01-07T01:23:28.522Z,-0.78
2023-01-07T01:26:50.562Z,-0.87
2023-01-07T01:30:12.496Z,-0.63
2023-01-07T01:33:34.485Z,-0.90
2023-01-07T01:36:56.513Z,-1.54
2023-01-07T01:40:11.869Z,-1.17
2023-01-07T01:43:46.459Z,-0.90
2023-01-07T01:47:08.472Z,-1.00
2023-01-07T01:50:23.554Z,-0.94
2023-01-07T01:53:46.524Z,-1.11
2023-01-07T01:57:08.519Z,-1.25
2023-01-07T02:00:30.532Z,-1.10
2023-01-07T02:03:54.484Z,-0.93
2023-01-07T02:07:17.500Z,-1.11
2023-01-07T02:10:35.573Z,-1.25
2023-01-07T02:14:03.460Z,-1.13
2023-01-07T02:17:35.528Z,-1.35
2023-01-07T02:21:12.471Z,-1.23
2023-01-07T02:24:52.453Z,-1.37
2023-01-07T02:28:22.484Z,-1.29
2023-01-07T02:31:55.677Z,-1.10
2023-01-07T02:35:36.479Z,-1.33
2023-01-07T02:39:01.469Z,-1.40
2023-01-07T02:42:20.950Z,-1.71
2023-01-07T02:45:45.526Z,-1.36
2023-01-07T02:49:07.471Z,-1.25
2023-01-07T02:52:22.561Z,-1.30
2023-01-07T02:56:03.419Z,-1.40
2023-01-07T02:59:32.436Z,-1.87
2023-01-07T03:03:12.433Z,-1.57
2023-01-07T03:06:37.411Z,-1.42
2023-01-07T03:09:59.441Z,-1.24
2023-01-07T03:13:15.568Z,-1.54
2023-01-07T03:16:41.467Z,-1.56
2023-01-07T03:20:07.481Z,-1.49
2023-01-07T03:23:29.428Z,-1.49
2023-01-07T03:26:46.568Z,-1.45
2023-01-07T03:30:09.468Z,-1.34
2023-01-07T03:33:44.580Z,-1.48
2023-01-07T03:37:09.422Z,-1.34
2023-01-07T03:40:32.451Z,-1.32
2023-01-07T03:43:48.673Z,-1.45
2023-01-07T03:47:10.389Z,-1.29
2023-01-07T03:50:32.448Z,-2.20
2023-01-07T03:53:48.508Z,-2.10
2023-01-07T03:57:10.419Z,-1.66
2023-01-07T04:00:32.432Z,-1.50
2023-01-07T04:03:55.605Z,-1.44
2023-01-07T04:07:17.379Z,-1.39
2023-01-07T04:10:39.395Z,-1.39
2023-01-07T04:13:57.141Z,-1.57
2023-01-07T04:17:19.405Z,-1.65
2023-01-07T04:20:41.370Z,-1.79
2023-01-07T04:23:57.583Z,-1.71
2023-01-07T04:27:19.384Z,-1.68
2023-01-07T04:30:35.510Z,-1.98
2023-01-07T04:33:58.354Z,-1.68
2023-01-07T04:37:20.412Z,-1.56
2023-01-07T04:40:42.427Z,-1.43
2023-01-07T04:43:58.607Z,-1.77
2023-01-07T04:47:21.380Z,-1.58
2023-01-07T04:50:44.389Z,-1.89
2023-01-07T04:53:59.449Z,-1.79
2023-01-07T04:57:21.420Z,-1.94
2023-01-07T05:00:43.408Z,-1.98
2023-01-07T05:03:59.681Z,-2.15
2023-01-07T05:07:21.357Z,-2.07
2023-01-07T05:10:44.380Z,-1.94
2023-01-07T05:14:06.402Z,-1.81
2023-01-07T05:17:28.359Z,-1.66
2023-01-07T05:20:45.487Z,-1.73
2023-01-07T05:24:07.316Z,-1.69
2023-01-07T05:27:29.393Z,-1.70
2023-01-07T05:30:53.393Z,-1.62
2023-01-07T05:34:15.338Z,-1.70
2023-01-07T05:37:30.517Z,-1.94
2023-01-07T05:40:54.376Z,-1.89
2023-01-07T05:44:16.355Z,-1.95
2023-01-07T05:47:38.322Z,-1.98
2023-01-07T05:51:00.333Z,-1.95
2023-01-07T05:54:22.366Z,-2.06
2023-01-07T05:57:44.309Z,-1.94
2023-01-07T06:01:06.394Z,-2.07
2023-01-07T06:04:21.637Z,-2.23
2023-01-07T06:07:43.343Z,-2.37
2023-01-07T06:11:05.343Z,-2.60
2023-01-07T06:14:27.348Z,-2.39
2023-01-07T06:17:49.303Z,-2.18
2023-01-07T06:21:11.376Z,-2.02
2023-01-07T06:24:33.331Z,-2.23
2023-01-07T06:27:55.306Z,-2.22
2023-01-07T06:31:17.380Z,-2.04
2023-01-07T06:34:32.483Z,-1.90
2023-01-07T06:37:54.331Z,-1.82
2023-01-07T06:41:09.392Z,-1.75
2023-01-07T06:44:31.323Z,-1.78
2023-01-07T06:48:02.527Z,-1.51
2023-01-07T06:51:17.564Z,-1.36
2023-01-07T06:54:39.298Z,-1.48
2023-01-07T06:57:54.541Z,-1.58
2023-01-07T07:01:12.424Z,-1.66
2023-01-07T07:04:34.307Z,-1.63
2023-01-07T07:07:56.288Z,-1.60
2023-01-07T07:11:11.425Z,-1.52
2023-01-07T07:14:33.286Z,-1.54
2023-01-07T07:17:48.442Z,-1.60
2023-01-07T07:21:10.298Z,-1.42
2023-01-07T07:24:32.323Z,-1.37
2023-01-07T07:27:47.559Z,-1.14
2023-01-07T07:31:09.280Z,-0.96
2023-01-07T07:34:24.476Z,-0.96
2023-01-07T07:37:46.259Z,-1.10
2023-01-07T07:41:08.290Z,-1.15
2023-01-07T07:44:23.416Z,-1.03
2023-01-07T07:47:45.264Z,-0.78
2023-01-07T07:51:07.266Z,-0.75
2023-01-07T07:54:29.232Z,-0.64
2023-01-07T07:57:51.322Z,-0.55
2023-01-07T08:01:06.493Z,-0.47
2023-01-07T08:04:28.260Z,-0.25
2023-01-07T08:07:50.292Z,-0.22
2023-01-07T08:11:05.346Z,0.03
2023-01-07T08:14:27.211Z,0.18
2023-01-07T08:17:42.344Z,0.46
2023-01-07T08:21:04.219Z,0.72
2023-01-07T08:24:26.271Z,0.74
2023-01-07T08:27:48.280Z,0.98
2023-01-07T08:31:03.992Z,1.09
2023-01-07T08:34:26.275Z,1.35
2023-01-07T08:37:41.332Z,1.53
2023-01-07T08:41:11.203Z,1.75
2023-01-07T08:44:33.259Z,1.96
2023-01-07T08:47:55.241Z,2.02
2023-01-07T08:51:17.251Z,2.42
2023-01-07T08:54:39.272Z,2.59
2023-01-07T08:57:54.350Z,2.78
2023-01-07T09:01:16.296Z,3.08
2023-01-07T09:04:38.240Z,3.49
2023-01-07T09:07:53.561Z,3.75
2023-01-07T09:11:15.198Z,4.02
2023-01-07T09:14:37.205Z,4.18
2023-01-07T09:17:52.299Z,4.53
2023-01-07T09:21:14.255Z,4.50
2023-01-07T09:24:29.367Z,4.46
2023-01-07T09:27:52.246Z,4.61
2023-01-07T09:31:14.213Z,4.71
2023-01-07T09:34:36.189Z,4.88
2023-01-07T09:37:51.274Z,5.06
2023-01-07T09:41:19.257Z,5.26
2023-01-07T09:44:48.228Z,5.23
2023-01-07T09:48:11.196Z,5.34
2023-01-07T09:51:26.343Z,5.50
2023-01-07T09:54:48.239Z,5.59
2023-01-07T09:58:10.153Z,5.62
2023-01-07T10:01:28.459Z,5.78
2023-01-07T10:04:50.191Z,5.90
2023-01-07T10:08:30.152Z,5.88
2023-01-07T10:14:14.557Z,6.03
2023-01-07T10:17:40.600Z,6.05
2023-01-07T10:21:04.597Z,6.14
2023-01-07T10:24:31.564Z,6.10
2023-01-07T10:27:53.558Z,6.27
2023-01-07T10:31:18.221Z,6.51
2023-01-07T10:34:42.605Z,6.50
2023-01-07T10:38:04.589Z,6.35
2023-01-07T10:41:24.705Z,6.53
2023-01-07T10:44:49.554Z,6.59
2023-01-07T10:48:22.736Z,6.64
2023-01-07T10:51:56.620Z,6.59
2023-01-07T10:55:33.579Z,6.67
2023-01-07T10:58:48.787Z,6.71
2023-01-07T11:02:10.723Z,6.74
2023-01-07T11:05:39.593Z,6.93
2023-01-07T11:08:55.006Z,7.10
2023-01-07T11:12:38.532Z,7.12
2023-01-07T11:16:00.549Z,7.26
2023-01-07T11:19:16.269Z,7.19
2023-01-07T11:22:40.546Z,7.45
2023-01-07T11:26:10.526Z,7.65
2023-01-07T11:29:36.532Z,7.79
2023-01-07T11:33:09.523Z,8.37
2023-01-07T11:36:31.533Z,8.89
2023-01-07T11:39:46.938Z,8.33
2023-01-07T11:43:15.506Z,9.49
2023-01-07T11:46:38.594Z,9.14
2023-01-07T11:49:53.670Z,9.36
2023-01-07T11:53:15.517Z,9.39
2023-01-07T11:56:38.536Z,8.97
2023-01-07T12:00:26.117Z,9.14
2023-01-07T12:03:50.545Z,8.97
2023-01-07T12:07:13.527Z,9.16
2023-01-07T12:10:38.712Z,9.34
2023-01-07T12:14:00.513Z,9.32
2023-01-07T12:17:27.513Z,9.27
2023-01-07T12:20:49.029Z,9.07
2023-01-07T12:24:28.525Z,9.20
2023-01-07T12:27:56.482Z,9.23
2023-01-07T12:31:18.536Z,9.02
2023-01-07T12:34:36.433Z,9.01
2023-01-07T12:37:58.499Z,8.91
2023-01-07T12:41:26.470Z,9.02
2023-01-07T12:44:48.501Z,8.88
2023-01-07T12:48:11.508Z,8.84
2023-01-07T12:51:34.493Z,8.71
2023-01-07T12:54:57.500Z,8.58
2023-01-07T12:58:31.226Z,8.62
2023-01-07T13:01:57.586Z,8.65
2023-01-07T13:05:22.512Z,8.62
2023-01-07T13:08:47.530Z,8.67
2023-01-07T13:12:42.204Z,8.56
2023-01-07T13:16:04.513Z,8.39
2023-01-07T13:19:26.488Z,8.27
2023-01-07T13:22:46.429Z,8.25
2023-01-07T13:26:11.488Z,8.41
2023-01-07T13:29:39.502Z,8.45
2023-01-07T13:33:01.481Z,8.36
2023-01-07T13:36:34.991Z,8.29
2023-01-07T13:40:14.504Z,8.30
2023-01-07T13:43:49.488Z,8.15
2023-01-07T13:47:11.491Z,8.17
2023-01-07T13:50:46.479Z,8.25
2023-01-07T13:54:02.052Z,8.39
2023-01-07T13:57:46.480Z,8.44
2023-01-07T14:01:27.586Z,8.23
2023-01-07T14:04:49.275Z,8.20
2023-01-07T14:08:12.516Z,8.21
2023-01-07T14:11:37.498Z,8.22
2023-01-07T14:14:59.452Z,8.19
2023-01-07T14:18:33.401Z,8.17
2023-01-07T14:21:58.422Z,7.98
2023-01-07T14:25:18.986Z,7.94
2023-01-07T14:28:43.465Z,7.89
2023-01-07T14:32:24.411Z,7.78
2023-01-07T14:35:55.483Z,7.11
2023-01-07T14:39:29.222Z,6.72
2023-01-07T14:42:57.403Z,6.64
2023-01-07T14:46:24.862Z,6.58
2023-01-07T14:49:50.400Z,6.29
2023-01-07T14:53:30.422Z,6.12
2023-01-07T14:56:57.556Z,5.96
2023-01-07T15:00:25.403Z,6.09
2023-01-07T15:03:50.427Z,5.69
2023-01-07T15:07:12.455Z,5.76
2023-01-07T15:10:53.386Z,5.51
2023-01-07T15:14:43.434Z,6.00
2023-01-07T15:18:05.399Z,5.94
2023-01-07T15:21:33.420Z,5.70
2023-01-07T15:24:51.568Z,5.61
2023-01-07T15:28:42.404Z,5.39
2023-01-07T15:32:23.445Z,5.55
2023-01-07T15:35:39.770Z,5.61
2023-01-07T15:39:07.396Z,5.49
2023-01-07T15:42:30.381Z,5.30
2023-01-07T15:45:52.405Z,5.35
2023-01-07T15:49:21.403Z,5.32
2023-01-07T15:52:43.385Z,5.22
2023-01-07T15:55:59.763Z,5.42
2023-01-07T15:59:21.375Z,5.15
2023-01-07T16:02:44.424Z,4.89
2023-01-07T16:06:00.481Z,4.60
2023-01-07T16:09:25.398Z,4.40
2023-01-07T16:12:50.366Z,4.16
2023-01-07T16:16:06.669Z,4.63
2023-01-07T16:19:31.402Z,4.55
2023-01-07T16:22:46.616Z,4.57
2023-01-07T16:26:16.358Z,4.36
2023-01-07T16:29:39.392Z,4.32
2023-01-07T16:32:54.744Z,4.39
2023-01-07T16:36:20.366Z,4.22
2023-01-07T16:39:41.481Z,4.02
2023-01-07T16:43:03.345Z,3.88
2023-01-07T16:46:34.811Z,3.68
2023-01-07T16:50:03.405Z,3.85
2023-01-07T16:53:44.437Z,3.91
2023-01-07T16:57:01.249Z,3.38
2023-01-07T17:00:29.385Z,3.17
2023-01-07T17:03:48.960Z,3.78
2023-01-07T17:07:13.318Z,3.49
2023-01-07T17:10:31.637Z,3.15
2023-01-07T17:13:53.366Z,2.92
2023-01-07T17:17:17.407Z,3.02
2023-01-07T17:20:39.348Z,2.95
2023-01-07T17:23:54.535Z,2.75
2023-01-07T17:27:16.337Z,2.31
2023-01-07T17:30:38.313Z,2.57
2023-01-07T17:34:00.369Z,2.59
2023-01-07T17:37:16.024Z,2.23
2023-01-07T17:40:37.276Z,2.02
2023-01-07T17:43:59.335Z,1.95
2023-01-07T17:47:23.297Z,2.13
2023-01-07T17:50:45.317Z,1.98
2023-01-07T17:54:07.341Z,2.30
2023-01-07T17:57:29.330Z,2.34
2023-01-07T18:00:44.395Z,2.13
2023-01-07T18:04:06.324Z,1.69
2023-01-07T18:07:28.351Z,1.20
2023-01-07T18:11:08.336Z,1.45
2023-01-07T18:14:30.328Z,1.39
2023-01-07T18:17:45.806Z,1.26
2023-01-07T18:21:07.337Z,1.14
2023-01-07T18:24:29.343Z,1.25
2023-01-07T18:27:44.464Z,1.41
2023-01-07T18:31:06.285Z,1.29
2023-01-07T18:34:28.280Z,1.25
2023-01-07T18:37:43.513Z,1.24
2023-01-07T18:41:06.311Z,0.88
2023-01-07T18:44:28.362Z,1.05
2023-01-07T18:47:50.320Z,0.98
2023-01-07T18:51:15.305Z,0.72
2023-01-07T18:54:39.323Z,0.66
2023-01-07T18:57:54.457Z,0.68
2023-01-07T19:01:17.395Z,0.80
2023-01-07T19:04:34.408Z,0.65
2023-01-07T19:07:56.306Z,0.29
2023-01-07T19:11:19.313Z,-0.03
2023-01-07T19:14:34.384Z,0.11
2023-01-07T19:17:56.244Z,0.35
2023-01-07T19:21:18.302Z,0.17
2023-01-07T19:24:40.315Z,0.30
2023-01-07T19:27:55.408Z,0.35
2023-01-07T19:31:17.286Z,0.36
2023-01-07T19:34:32.431Z,0.46
2023-01-07T19:37:54.209Z,-0.01
2023-01-07T19:41:16.246Z,-0.40
2023-01-07T19:44:31.522Z,-0.44
2023-01-07T19:47:54.253Z,-0.42
2023-01-07T19:51:16.269Z,-0.86
2023-01-07T19:54:31.402Z,-0.86
2023-01-07T19:57:53.211Z,-0.70
2023-01-07T20:01:16.356Z,-0.33
2023-01-07T20:04:31.468Z,-0.33
2023-01-07T20:07:53.288Z,-0.21
2023-01-07T20:11:08.568Z,-0.20
2023-01-07T20:14:30.218Z,-0.39
2023-01-07T20:17:52.196Z,-0.46
2023-01-07T20:21:07.304Z,-0.65
2023-01-07T20:24:29.212Z,-0.77
2023-01-07T20:27:51.245Z,-0.67
2023-01-07T20:31:13.288Z,-1.03
2023-01-07T20:34:35.274Z,-0.68
2023-01-07T20:37:50.429Z,-0.74
2023-01-07T20:41:12.254Z,-0.88
2023-01-07T20:44:27.531Z,-0.93
2023-01-07T20:47:49.208Z,-0.91
2023-01-07T20:51:14.306Z,-1.01
2023-01-07T20:54:36.232Z,-1.30
2023-01-07T20:57:51.461Z,-1.31
2023-01-07T21:01:16.288Z,-1.29
2023-01-07T21:04:38.171Z,-1.11
2023-01-07T21:07:53.868Z,-1.06
2023-01-07T21:11:18.199Z,-1.05
2023-01-07T21:14:33.309Z,-1.24
2023-01-07T21:17:55.190Z,-1.54
2023-01-07T21:21:21.165Z,-1.43
2023-01-07T21:24:36.515Z,-1.25
2023-01-07T21:27:58.183Z,-1.21
2023-01-07T21:31:20.286Z,-1.27
2023-01-07T21:34:42.167Z,-1.29
2023-01-07T21:38:04.209Z,-1.17
2023-01-07T21:41:27.170Z,-1.04
2023-01-07T21:44:49.239Z,-1.08
2023-01-07T21:48:04.274Z,-1.16
2023-01-07T21:51:27.155Z,-0.85
2023-01-07T21:54:49.146Z,-1.07
2023-01-07T21:58:11.145Z,-1.11
2023-01-07T22:01:28.778Z,-1.06
2023-01-07T22:04:52.169Z,-0.95
2023-01-07T22:08:14.191Z,-1.15
2023-01-07T22:11:36.199Z,-1.17
2023-01-07T22:14:51.231Z,-1.22
2023-01-07T22:18:13.163Z,-1.43
2023-01-07T22:21:28.270Z,-1.81
2023-01-07T22:24:50.139Z,-2.11
2023-01-07T22:28:13.145Z,-2.26
2023-01-07T22:31:30.424Z,-2.07
2023-01-07T22:34:52.161Z,-1.80
2023-01-07T22:38:14.178Z,-1.98
2023-01-07T22:41:29.349Z,-2.28
2023-01-07T22:44:54.122Z,-2.30
2023-01-07T22:48:09.312Z,-2.24
2023-01-07T22:51:38.866Z,-2.00
2023-01-07T22:55:01.161Z,-2.02
2023-01-07T22:58:17.618Z,-1.99
2023-01-07T23:01:39.129Z,-1.86
2023-01-07T23:04:54.388Z,-2.27
2023-01-07T23:08:16.111Z,-2.56
2023-01-07T23:11:58.077Z,-2.40
2023-01-07T23:15:20.129Z,-2.40
2023-01-07T23:18:35.329Z,-2.24
2023-01-07T23:21:58.119Z,-2.20
2023-01-07T23:25:20.108Z,-2.42
2023-01-07T23:28:35.233Z,-2.38
2023-01-07T23:31:57.173Z,-2.28
2023-01-07T23:35:20.119Z,-2.45
2023-01-07T23:38:35.523Z,-2.66
2023-01-07T23:41:57.085Z,-2.53
2023-01-07T23:45:12.295Z,-2.73
2023-01-07T23:48:34.130Z,-2.66
2023-01-07T23:51:56.102Z,-2.62
2023-01-07T23:55:12.223Z,-2.84
2023-01-07T23:58:34.106Z,-2.69
